sensor_id;sensor_type;location;lat;lon;timestamp;pressure;altitude;pressure_sealevel;temperature;humidity
65897;BME280;52677;50.898;10.854;2024-01-15T00:00:41;96791.75;;;-1.54;100.00
65897;BME280;52677;50.898;10.854;2024-01-15T00:02:41;96788.13;;;-1.58;100.00
65897;BME280;52677;50.898;10.854;2024-01-15T00:04:41;96776.63;;;-1.55;100.00
65897;BME280;52677;50.898;10.854;2024-01-15T00:06:42;96761.69;;;-1.61;100.00
65897;BME280;52677;50.898;10.854;2024-01-15T00:08:42;96763.63;;;-1.61;100.00
65897;BME280;52677;50.898;10.854;2024-01-15T00:10:42;96764.84;;;-1.59;100.00
65897;BME280;52677;50.898;10.854;2024-01-15T00:12:42;96761.59;;;-1.64;100.00
65897;BME280;52677;50.898;10.854;2024-01-15T00:14:43;96758.88;;;-1.64;100.00
65897;BME280;52677;50.898;10.854;2024-01-15T00:16:43;96759.19;;;-1.66;100.00
65897;BME280;52677;50.898;10.854;2024-01-15T00:18:43;96767.34;;;-1.66;100.00
65897;BME280;52677;50.898;10.854;2024-01-15T00:20:44;96758.75;;;-1.68;100.00
65897;BME280;52677;50.898;10.854;2024-01-15T00:22:44;96742.94;;;-1.66;100.00
65897;BME280;52677;50.898;10.854;2024-01-15T00:24:44;96747.25;;;-1.65;100.00
65897;BME280;52677;50.898;10.854;2024-01-15T00:26:44;96752.31;;;-1.63;100.00
65897;BME280;52677;50.898;10.854;2024-01-15T00:28:45;96746.25;;;-1.73;100.00
65897;BME280;52677;50.898;10.854;2024-01-15T00:30:45;96753.34;;;-1.68;100.00
65897;BME280;52677;50.898;10.854;2024-01-15T00:32:45;96746.25;;;-1.73;100.00
65897;BME280;52677;50.898;10.854;2024-01-15T00:34:46;96764.75;;;-1.75;100.00
65897;BME280;52677;50.898;10.854;2024-01-15T00:36:46;96754.69;;;-1.74;100.00
65897;BME280;52677;50.898;10.854;2024-01-15T00:38:47;96749.25;;;-1.74;100.00
65897;BME280;52677;50.898;10.854;2024-01-15T00:40:47;96751.53;;;-1.76;100.00
65897;BME280;52677;50.898;10.854;2024-01-15T00:42:47;96765.00;;;-1.80;100.00
65897;BME280;52677;50.898;10.854;2024-01-15T00:44:48;96748.59;;;-1.83;100.00
65897;BME280;52677;50.898;10.854;2024-01-15T00:46:48;96765.78;;;-1.79;100.00
65897;BME280;52677;50.898;10.854;2024-01-15T00:48:48;96746.91;;;-1.88;100.00
65897;BME280;52677;50.898;10.854;2024-01-15T00:50:49;96746.00;;;-1.80;100.00
65897;BME280;52677;50.898;10.854;2024-01-15T00:52:49;96737.09;;;-1.80;100.00
65897;BME280;52677;50.898;10.854;2024-01-15T00:54:49;96741.25;;;-1.83;100.00
65897;BME280;52677;50.898;10.854;2024-01-15T00:56:49;96739.31;;;-1.82;100.00
65897;BME280;52677;50.898;10.854;2024-01-15T00:58:50;96746.22;;;-1.85;100.00
65897;BME280;52677;50.898;10.854;2024-01-15T01:00:50;96749.28;;;-1.86;100.00
65897;BME280;52677;50.898;10.854;2024-01-15T01:02:50;96741.38;;;-1.91;100.00
65897;BME280;52677;50.898;10.854;2024-01-15T01:04:51;96744.66;;;-1.86;100.00
65897;BME280;52677;50.898;10.854;2024-01-15T01:06:51;96715.28;;;-1.84;100.00
65897;BME280;52677;50.898;10.854;2024-01-15T01:08:51;96707.38;;;-1.89;100.00
65897;BME280;52677;50.898;10.854;2024-01-15T01:10:52;96697.09;;;-1.95;100.00
65897;BME280;52677;50.898;10.854;2024-01-15T01:12:52;96701.84;;;-1.92;100.00
65897;BME280;52677;50.898;10.854;2024-01-15T01:14:52;96704.31;;;-2.00;100.00
65897;BME280;52677;50.898;10.854;2024-01-15T01:16:52;96718.44;;;-1.94;100.00
65897;BME280;52677;50.898;10.854;2024-01-15T01:18:53;96695.97;;;-1.94;100.00
65897;BME280;52677;50.898;10.854;2024-01-15T01:20:53;96701.75;;;-1.96;100.00
65897;BME280;52677;50.898;10.854;2024-01-15T01:22:53;96689.31;;;-1.97;100.00
65897;BME280;52677;50.898;10.854;2024-01-15T01:24:53;96705.47;;;-2.01;100.00
65897;BME280;52677;50.898;10.854;2024-01-15T01:26:54;96697.22;;;-2.04;100.00
65897;BME280;52677;50.898;10.854;2024-01-15T01:28:54;96720.81;;;-2.05;100.00
65897;BME280;52677;50.898;10.854;2024-01-15T01:30:54;96711.34;;;-2.11;100.00
65897;BME280;52677;50.898;10.854;2024-01-15T01:32:55;96719.13;;;-2.09;100.00
65897;BME280;52677;50.898;10.854;2024-01-15T01:34:55;96726.47;;;-2.10;100.00
65897;BME280;52677;50.898;10.854;2024-01-15T01:36:55;96729.06;;;-2.13;100.00
65897;BME280;52677;50.898;10.854;2024-01-15T01:38:56;96730.19;;;-2.14;100.00
65897;BME280;52677;50.898;10.854;2024-01-15T01:40:56;96720.94;;;-2.13;100.00
65897;BME280;52677;50.898;10.854;2024-01-15T01:42:56;96712.56;;;-2.08;100.00
65897;BME280;52677;50.898;10.854;2024-01-15T01:44:57;96701.19;;;-2.14;100.00
65897;BME280;52677;50.898;10.854;2024-01-15T01:46:58;96708.19;;;-2.13;100.00
65897;BME280;52677;50.898;10.854;2024-01-15T01:49:00;96705.81;;;-2.14;100.00
65897;BME280;52677;50.898;10.854;2024-01-15T01:51:05;96695.75;;;-2.14;100.00
65897;BME280;52677;50.898;10.854;2024-01-15T01:53:05;96707.94;;;-2.20;100.00
65897;BME280;52677;50.898;10.854;2024-01-15T01:55:07;96714.25;;;-2.16;100.00
65897;BME280;52677;50.898;10.854;2024-01-15T01:57:10;96712.13;;;-2.22;100.00
65897;BME280;52677;50.898;10.854;2024-01-15T01:59:11;96713.22;;;-2.23;100.00
65897;BME280;52677;50.898;10.854;2024-01-15T02:01:12;96713.13;;;-2.27;100.00
65897;BME280;52677;50.898;10.854;2024-01-15T02:03:13;96713.38;;;-2.20;100.00
65897;BME280;52677;50.898;10.854;2024-01-15T02:05:14;96711.00;;;-2.21;100.00
65897;BME280;52677;50.898;10.854;2024-01-15T02:07:18;96708.38;;;-2.18;100.00
65897;BME280;52677;50.898;10.854;2024-01-15T02:09:18;96719.47;;;-2.11;100.00
65897;BME280;52677;50.898;10.854;2024-01-15T02:11:19;96711.69;;;-2.12;100.00
65897;BME280;52677;50.898;10.854;2024-01-15T02:13:20;96716.84;;;-2.07;100.00
65897;BME280;52677;50.898;10.854;2024-01-15T02:15:20;96707.94;;;-2.08;100.00
65897;BME280;52677;50.898;10.854;2024-01-15T02:17:21;96708.28;;;-2.09;100.00
65897;BME280;52677;50.898;10.854;2024-01-15T02:19:21;96718.78;;;-2.08;100.00
65897;BME280;52677;50.898;10.854;2024-01-15T02:21:21;96710.19;;;-2.10;100.00
65897;BME280;52677;50.898;10.854;2024-01-15T02:23:21;96712.91;;;-2.10;100.00
65897;BME280;52677;50.898;10.854;2024-01-15T02:25:22;96704.69;;;-2.13;100.00
65897;BME280;52677;50.898;10.854;2024-01-15T02:27:22;96712.47;;;-2.12;100.00
65897;BME280;52677;50.898;10.854;2024-01-15T02:29:23;96701.50;;;-2.15;100.00
65897;BME280;52677;50.898;10.854;2024-01-15T02:31:23;96713.94;;;-2.14;100.00
65897;BME280;52677;50.898;10.854;2024-01-15T02:33:23;96693.72;;;-2.17;100.00
65897;BME280;52677;50.898;10.854;2024-01-15T02:35:24;96687.63;;;-2.14;100.00
65897;BME280;52677;50.898;10.854;2024-01-15T02:37:24;96704.69;;;-2.13;100.00
65897;BME280;52677;50.898;10.854;2024-01-15T02:39:24;96706.47;;;-2.17;100.00
65897;BME280;52677;50.898;10.854;2024-01-15T02:41:25;96709.06;;;-2.09;100.00
65897;BME280;52677;50.898;10.854;2024-01-15T02:43:25;96712.25;;;-2.07;100.00
65897;BME280;52677;50.898;10.854;2024-01-15T02:45:25;96720.13;;;-2.02;100.00
65897;BME280;52677;50.898;10.854;2024-01-15T02:47:26;96704.44;;;-1.96;100.00
65897;BME280;52677;50.898;10.854;2024-01-15T02:49:26;96713.59;;;-2.01;100.00
65897;BME280;52677;50.898;10.854;2024-01-15T02:51:26;96710.44;;;-2.03;100.00
65897;BME280;52677;50.898;10.854;2024-01-15T02:53:27;96705.00;;;-2.03;100.00
65897;BME280;52677;50.898;10.854;2024-01-15T02:55:27;96707.28;;;-2.05;100.00
65897;BME280;52677;50.898;10.854;2024-01-15T02:57:29;96708.28;;;-2.09;100.00
65897;BME280;52677;50.898;10.854;2024-01-15T02:59:29;96712.13;;;-2.10;100.00
65897;BME280;52677;50.898;10.854;2024-01-15T03:01:30;96714.16;;;-2.07;100.00
65897;BME280;52677;50.898;10.854;2024-01-15T03:03:30;96719.47;;;-2.11;100.00
65897;BME280;52677;50.898;10.854;2024-01-15T03:05:30;96723.09;;;-2.07;100.00
65897;BME280;52677;50.898;10.854;2024-01-15T03:07:31;96723.53;;;-2.05;100.00
65897;BME280;52677;50.898;10.854;2024-01-15T03:09:31;96726.59;;;-2.06;100.00
65897;BME280;52677;50.898;10.854;2024-01-15T03:11:38;96724.19;;;-2.08;100.00
65897;BME280;52677;50.898;10.854;2024-01-15T03:13:39;96716.06;;;-2.08;100.00
65897;BME280;52677;50.898;10.854;2024-01-15T03:15:39;96714.38;;;-2.12;100.00
65897;BME280;52677;50.898;10.854;2024-01-15T03:17:41;96713.59;;;-2.13;100.00
65897;BME280;52677;50.898;10.854;2024-01-15T03:19:42;96731.31;;;-2.15;100.00
65897;BME280;52677;50.898;10.854;2024-01-15T03:21:42;96720.34;;;-2.19;100.00
65897;BME280;52677;50.898;10.854;2024-01-15T03:23:43;96719.13;;;-2.21;100.00
65897;BME280;52677;50.898;10.854;2024-01-15T03:25:43;96729.19;;;-2.22;100.00
65897;BME280;52677;50.898;10.854;2024-01-15T03:27:44;96738.00;;;-2.13;100.00
65897;BME280;52677;50.898;10.854;2024-01-15T03:29:44;96728.03;;;-2.09;100.00
65897;BME280;52677;50.898;10.854;2024-01-15T03:31:45;96728.50;;;-2.07;100.00
65897;BME280;52677;50.898;10.854;2024-01-15T03:33:45;96741.38;;;-2.04;100.00
65897;BME280;52677;50.898;10.854;2024-01-15T03:35:45;96753.59;;;-1.98;100.00
65897;BME280;52677;50.898;10.854;2024-01-15T03:37:46;96745.44;;;-1.98;100.00
65897;BME280;52677;50.898;10.854;2024-01-15T03:39:46;96752.78;;;-1.98;100.00
65897;BME280;52677;50.898;10.854;2024-01-15T03:41:46;96759.91;;;-1.93;100.00
65897;BME280;52677;50.898;10.854;2024-01-15T03:43:47;96750.09;;;-1.98;100.00
65897;BME280;52677;50.898;10.854;2024-01-15T03:45:47;96745.09;;;-1.96;100.00
65897;BME280;52677;50.898;10.854;2024-01-15T03:47:47;96750.41;;;-2.00;100.00
65897;BME280;52677;50.898;10.854;2024-01-15T03:49:47;96746.09;;;-2.01;100.00
65897;BME280;52677;50.898;10.854;2024-01-15T03:51:48;96733.69;;;-2.02;100.00
65897;BME280;52677;50.898;10.854;2024-01-15T03:53:48;96743.88;;;-1.99;100.00
65897;BME280;52677;50.898;10.854;2024-01-15T03:55:49;96737.41;;;-1.94;100.00
65897;BME280;52677;50.898;10.854;2024-01-15T03:57:49;96735.50;;;-1.93;100.00
65897;BME280;52677;50.898;10.854;2024-01-15T03:59:50;96732.91;;;-2.02;100.00
65897;BME280;52677;50.898;10.854;2024-01-15T04:01:50;96735.75;;;-1.99;100.00
65897;BME280;52677;50.898;10.854;2024-01-15T04:03:51;96732.91;;;-2.02;100.00
65897;BME280;52677;50.898;10.854;2024-01-15T04:05:51;96729.63;;;-2.08;100.00
65897;BME280;52677;50.898;10.854;2024-01-15T04:07:51;96731.31;;;-2.03;100.00
65897;BME280;52677;50.898;10.854;2024-01-15T04:09:51;96735.75;;;-1.99;100.00
65897;BME280;52677;50.898;10.854;2024-01-15T04:11:52;96723.63;;;-2.01;100.00
65897;BME280;52677;50.898;10.854;2024-01-15T04:13:52;96723.97;;;-2.03;100.00
65897;BME280;52677;50.898;10.854;2024-01-15T04:15:52;96727.94;;;-2.00;100.00
65897;BME280;52677;50.898;10.854;2024-01-15T04:17:53;96733.91;;;-1.94;100.00
65897;BME280;52677;50.898;10.854;2024-01-15T04:19:53;96720.94;;;-2.01;100.00
65897;BME280;52677;50.898;10.854;2024-01-15T04:21:53;96713.50;;;-2.04;100.00
65897;BME280;52677;50.898;10.854;2024-01-15T04:23:54;96721.81;;;-2.09;100.00
65897;BME280;52677;50.898;10.854;2024-01-15T04:25:54;96716.41;;;-2.09;100.00
65897;BME280;52677;50.898;10.854;2024-01-15T04:27:54;96718.69;;;-2.11;100.00
65897;BME280;52677;50.898;10.854;2024-01-15T04:29:55;96722.06;;;-2.14;100.00
65897;BME280;52677;50.898;10.854;2024-01-15T04:31:55;96721.06;;;-2.22;100.00
65897;BME280;52677;50.898;10.854;2024-01-15T04:33:55;96709.75;;;-2.24;100.00
65897;BME280;52677;50.898;10.854;2024-01-15T04:35:55;96707.50;;;-2.22;100.00
65897;BME280;52677;50.898;10.854;2024-01-15T04:37:56;96715.84;;;-2.27;100.00
65897;BME280;52677;50.898;10.854;2024-01-15T04:39:56;96728.50;;;-2.31;100.00
65897;BME280;52677;50.898;10.854;2024-01-15T04:41:57;96727.69;;;-2.32;100.00
65897;BME280;52677;50.898;10.854;2024-01-15T04:43:57;96728.00;;;-2.33;100.00
65897;BME280;52677;50.898;10.854;2024-01-15T04:45:58;96738.31;;;-2.27;100.00
65897;BME280;52677;50.898;10.854;2024-01-15T04:47:59;96738.88;;;-2.21;100.00
65897;BME280;52677;50.898;10.854;2024-01-15T04:49:59;96744.66;;;-2.22;100.00
65897;BME280;52677;50.898;10.854;2024-01-15T04:52:00;96737.50;;;-2.27;100.00
65897;BME280;52677;50.898;10.854;2024-01-15T04:54:01;96740.56;;;-2.29;100.00
65897;BME280;52677;50.898;10.854;2024-01-15T04:56:01;96726.09;;;-2.33;100.00
65897;BME280;52677;50.898;10.854;2024-01-15T04:58:02;96732.09;;;-2.39;100.00
65897;BME280;52677;50.898;10.854;2024-01-15T05:00:02;96729.94;;;-2.46;100.00
65897;BME280;52677;50.898;10.854;2024-01-15T05:02:03;96736.34;;;-2.50;100.00
65897;BME280;52677;50.898;10.854;2024-01-15T05:04:03;96724.38;;;-2.49;100.00
65897;BME280;52677;50.898;10.854;2024-01-15T05:06:04;96737.16;;;-2.38;100.00
65897;BME280;52677;50.898;10.854;2024-01-15T05:08:04;96740.06;;;-2.43;100.00
65897;BME280;52677;50.898;10.854;2024-01-15T05:10:05;96743.56;;;-2.42;100.00
65897;BME280;52677;50.898;10.854;2024-01-15T05:12:07;96745.28;;;-2.38;100.00
65897;BME280;52677;50.898;10.854;2024-01-15T05:14:07;96747.91;;;-2.29;100.00
65897;BME280;52677;50.898;10.854;2024-01-15T05:16:08;96744.06;;;-2.28;100.00
65897;BME280;52677;50.898;10.854;2024-01-15T05:18:08;96753.75;;;-2.27;100.00
65897;BME280;52677;50.898;10.854;2024-01-15T05:20:09;96744.50;;;-2.26;100.00
65897;BME280;52677;50.898;10.854;2024-01-15T05:22:09;96744.06;;;-2.28;100.00
65897;BME280;52677;50.898;10.854;2024-01-15T05:24:10;96741.94;;;-2.22;100.00
65897;BME280;52677;50.898;10.854;2024-01-15T05:26:10;96740.00;;;-2.22;100.00
65897;BME280;52677;50.898;10.854;2024-01-15T05:28:10;96734.25;;;-2.20;100.00
65897;BME280;52677;50.898;10.854;2024-01-15T05:30:11;96734.59;;;-2.22;100.00
65897;BME280;52677;50.898;10.854;2024-01-15T05:32:12;96726.56;;;-2.18;100.00
65897;BME280;52677;50.898;10.854;2024-01-15T05:34:12;96731.19;;;-2.19;100.00
65897;BME280;52677;50.898;10.854;2024-01-15T05:36:12;96731.19;;;-2.19;100.00
65897;BME280;52677;50.898;10.854;2024-01-15T05:38:13;96721.69;;;-2.25;100.00
65897;BME280;52677;50.898;10.854;2024-01-15T05:40:13;96721.34;;;-2.23;100.00
65897;BME280;52677;50.898;10.854;2024-01-15T05:42:13;96717.22;;;-2.21;100.00
65897;BME280;52677;50.898;10.854;2024-01-15T05:44:14;96707.50;;;-2.22;100.00
65897;BME280;52677;50.898;10.854;2024-01-15T05:46:14;96706.59;;;-2.26;100.00
65897;BME280;52677;50.898;10.854;2024-01-15T05:48:15;96701.59;;;-2.24;100.00
65897;BME280;52677;50.898;10.854;2024-01-15T05:50:16;96696.31;;;-2.20;100.00
65897;BME280;52677;50.898;10.854;2024-01-15T05:52:16;96694.63;;;-2.13;100.00
65897;BME280;52677;50.898;10.854;2024-01-15T05:54:18;96679.72;;;-2.07;100.00
65897;BME280;52677;50.898;10.854;2024-01-15T05:56:18;96674.19;;;-2.10;100.00
65897;BME280;52677;50.898;10.854;2024-01-15T05:58:19;96675.88;;;-2.06;100.00
65897;BME280;52677;50.898;10.854;2024-01-15T06:00:19;96676.09;;;-2.11;100.00
65897;BME280;52677;50.898;10.854;2024-01-15T06:02:19;96663.00;;;-2.09;100.00
65897;BME280;52677;50.898;10.854;2024-01-15T06:04:20;96663.69;;;-2.12;100.00
65897;BME280;52677;50.898;10.854;2024-01-15T06:06:20;96656.47;;;-2.20;100.00
65897;BME280;52677;50.898;10.854;2024-01-15T06:08:20;96672.50;;;-2.27;100.00
65897;BME280;52677;50.898;10.854;2024-01-15T06:10:21;96675.56;;;-2.29;100.00
65897;BME280;52677;50.898;10.854;2024-01-15T06:12:21;96667.28;;;-2.32;100.00
65897;BME280;52677;50.898;10.854;2024-01-15T06:14:22;96666.19;;;-2.31;100.00
65897;BME280;52677;50.898;10.854;2024-01-15T06:16:23;96666.28;;;-2.28;100.00
65897;BME280;52677;50.898;10.854;2024-01-15T06:18:23;96667.88;;;-2.27;100.00
65897;BME280;52677;50.898;10.854;2024-01-15T06:20:24;96670.22;;;-2.25;100.00
65897;BME280;52677;50.898;10.854;2024-01-15T06:22:24;96657.81;;;-2.26;100.00
65897;BME280;52677;50.898;10.854;2024-01-15T06:24:24;96661.56;;;-2.31;100.00
65897;BME280;52677;50.898;10.854;2024-01-15T06:26:25;96655.34;;;-2.31;100.00
65897;BME280;52677;50.898;10.854;2024-01-15T06:28:25;96659.50;;;-2.34;100.00
65897;BME280;52677;50.898;10.854;2024-01-15T06:30:25;96659.97;;;-2.32;100.00
65897;BME280;52677;50.898;10.854;2024-01-15T06:32:26;96659.06;;;-2.36;100.00
65897;BME280;52677;50.898;10.854;2024-01-15T06:34:26;96657.94;;;-2.35;100.00
65897;BME280;52677;50.898;10.854;2024-01-15T06:36:26;96660.53;;;-2.26;100.00
65897;BME280;52677;50.898;10.854;2024-01-15T06:38:27;96649.16;;;-2.32;100.00
65897;BME280;52677;50.898;10.854;2024-01-15T06:40:27;96642.25;;;-2.29;100.00
65897;BME280;52677;50.898;10.854;2024-01-15T06:42:27;96645.88;;;-2.37;100.00
65897;BME280;52677;50.898;10.854;2024-01-15T06:44:27;96648.56;;;-2.37;100.00
65897;BME280;52677;50.898;10.854;2024-01-15T06:46:28;96630.06;;;-2.35;100.00
65897;BME280;52677;50.898;10.854;2024-01-15T06:48:28;96639.66;;;-2.38;100.00
65897;BME280;52677;50.898;10.854;2024-01-15T06:50:28;96639.41;;;-2.33;100.00
65897;BME280;52677;50.898;10.854;2024-01-15T06:52:29;96633.00;;;-2.28;100.00
65897;BME280;52677;50.898;10.854;2024-01-15T06:54:29;96626.88;;;-2.25;100.00
65897;BME280;52677;50.898;10.854;2024-01-15T06:56:30;96626.09;;;-2.26;100.00
65897;BME280;52677;50.898;10.854;2024-01-15T06:58:31;96625.31;;;-2.26;100.00
65897;BME280;52677;50.898;10.854;2024-01-15T07:00:31;96631.28;;;-2.20;100.00
65897;BME280;52677;50.898;10.854;2024-01-15T07:02:32;96630.38;;;-2.24;100.00
65897;BME280;52677;50.898;10.854;2024-01-15T07:04:32;96635.00;;;-2.25;100.00
65897;BME280;52677;50.898;10.854;2024-01-15T07:06:33;96636.03;;;-2.30;100.00
65897;BME280;52677;50.898;10.854;2024-01-15T07:08:33;96646.31;;;-2.23;100.00
65897;BME280;52677;50.898;10.854;2024-01-15T07:10:33;96647.31;;;-2.28;100.00
65897;BME280;52677;50.898;10.854;2024-01-15T07:12:33;96648.91;;;-2.27;100.00
65897;BME280;52677;50.898;10.854;2024-01-15T07:14:34;96665.06;;;-2.30;100.00
65897;BME280;52677;50.898;10.854;2024-01-15T07:16:35;96656.03;;;-2.22;100.00
65897;BME280;52677;50.898;10.854;2024-01-15T07:18:35;96660.31;;;-2.21;100.00
65897;BME280;52677;50.898;10.854;2024-01-15T07:20:36;96657.59;;;-2.21;100.00
65897;BME280;52677;50.898;10.854;2024-01-15T07:22:37;96665.59;;;-2.24;100.00
65897;BME280;52677;50.898;10.854;2024-01-15T07:24:37;96659.50;;;-2.09;100.00
65897;BME280;52677;50.898;10.854;2024-01-15T07:26:37;96669.47;;;-2.13;100.00
65897;BME280;52677;50.898;10.854;2024-01-15T07:28:38;96674.09;;;-2.14;100.00
65897;BME280;52677;50.898;10.854;2024-01-15T07:30:41;96674.88;;;-2.13;100.00
65897;BME280;52677;50.898;10.854;2024-01-15T07:32:41;96689.53;;;-2.02;100.00
65897;BME280;52677;50.898;10.854;2024-01-15T07:34:42;96686.81;;;-2.02;100.00
65897;BME280;52677;50.898;10.854;2024-01-15T07:36:44;96686.72;;;-1.93;100.00
65897;BME280;52677;50.898;10.854;2024-01-15T07:38:44;96683.56;;;-1.95;100.00
65897;BME280;52677;50.898;10.854;2024-01-15T07:40:45;96683.13;;;-1.98;100.00
65897;BME280;52677;50.898;10.854;2024-01-15T07:42:49;96699.03;;;-1.96;100.00
65897;BME280;52677;50.898;10.854;2024-01-15T07:44:49;96687.50;;;-1.93;100.00
65897;BME280;52677;50.898;10.854;2024-01-15T07:46:51;96672.81;;;-1.92;100.00
65897;BME280;52677;50.898;10.854;2024-01-15T07:48:52;96686.72;;;-1.93;100.00
65897;BME280;52677;50.898;10.854;2024-01-15T07:50:56;96672.81;;;-1.92;100.00
65897;BME280;52677;50.898;10.854;2024-01-15T07:52:56;96675.78;;;-1.97;100.00
65897;BME280;52677;50.898;10.854;2024-01-15T07:54:56;96673.06;;;-1.97;100.00
65897;BME280;52677;50.898;10.854;2024-01-15T07:57:01;96677.34;;;-1.96;100.00
65897;BME280;52677;50.898;10.854;2024-01-15T07:59:04;96675.78;;;-1.97;100.00
65897;BME280;52677;50.898;10.854;2024-01-15T08:01:04;96678.91;;;-1.95;100.00
65897;BME280;52677;50.898;10.854;2024-01-15T08:03:06;96679.38;;;-2.05;100.00
65897;BME280;52677;50.898;10.854;2024-01-15T08:05:06;96679.63;;;-1.98;100.00
65897;BME280;52677;50.898;10.854;2024-01-15T08:07:07;96693.72;;;-2.05;100.00
65897;BME280;52677;50.898;10.854;2024-01-15T08:09:07;96691.47;;;-2.03;100.00
65897;BME280;52677;50.898;10.854;2024-01-15T08:11:08;96681.53;;;-2.11;100.00
65897;BME280;52677;50.898;10.854;2024-01-15T08:13:08;96673.06;;;-2.09;100.00
65897;BME280;52677;50.898;10.854;2024-01-15T08:15:09;96668.41;;;-2.09;100.00
65897;BME280;52677;50.898;10.854;2024-01-15T08:17:09;96677.34;;;-2.08;100.00
65897;BME280;52677;50.898;10.854;2024-01-15T08:19:09;96673.41;;;-2.11;100.00
65897;BME280;52677;50.898;10.854;2024-01-15T08:21:10;96667.88;;;-2.14;100.00
65897;BME280;52677;50.898;10.854;2024-01-15T08:23:10;96673.06;;;-2.09;100.00
65897;BME280;52677;50.898;10.854;2024-01-15T08:25:10;96675.09;;;-2.06;100.00
65897;BME280;52677;50.898;10.854;2024-01-15T08:27:11;96674.53;;;-2.12;100.00
65897;BME280;52677;50.898;10.854;2024-01-15T08:29:11;96680.84;;;-2.08;100.00
65897;BME280;52677;50.898;10.854;2024-01-15T08:31:12;96671.00;;;-2.00;100.00
65897;BME280;52677;50.898;10.854;2024-01-15T08:33:12;96686.13;;;-1.99;100.00
65897;BME280;52677;50.898;10.854;2024-01-15T08:35:13;96679.50;;;-1.89;100.00
65897;BME280;52677;50.898;10.854;2024-01-15T08:37:13;96678.47;;;-1.85;100.00
65897;BME280;52677;50.898;10.854;2024-01-15T08:39:13;96664.03;;;-1.89;100.00
65897;BME280;52677;50.898;10.854;2024-01-15T08:41:14;96673.72;;;-1.88;100.00
65897;BME280;52677;50.898;10.854;2024-01-15T08:43:14;96675.53;;;-1.92;100.00
65897;BME280;52677;50.898;10.854;2024-01-15T08:45:14;96687.03;;;-1.83;100.00
65897;BME280;52677;50.898;10.854;2024-01-15T08:47:15;96687.16;;;-1.79;100.00
65897;BME280;52677;50.898;10.854;2024-01-15T08:49:15;96687.38;;;-1.72;100.00
65897;BME280;52677;50.898;10.854;2024-01-15T08:51:15;96689.97;;;-1.63;100.00
65897;BME280;52677;50.898;10.854;2024-01-15T08:53:16;96695.47;;;-1.60;100.00
65897;BME280;52677;50.898;10.854;2024-01-15T08:55:17;96691.63;;;-1.59;100.00
65897;BME280;52677;50.898;10.854;2024-01-15T08:57:18;96688.13;;;-1.59;100.00
65897;BME280;52677;50.898;10.854;2024-01-15T08:59:18;96684.63;;;-1.48;100.00
65897;BME280;52677;50.898;10.854;2024-01-15T09:01:24;96695.56;;;-1.44;100.00
65897;BME280;52677;50.898;10.854;2024-01-15T09:03:25;96701.88;;;-1.40;100.00
65897;BME280;52677;50.898;10.854;2024-01-15T09:05:25;96689.63;;;-1.34;100.00
65897;BME280;52677;50.898;10.854;2024-01-15T09:07:26;96690.13;;;-1.32;100.00
65897;BME280;52677;50.898;10.854;2024-01-15T09:09:26;96692.13;;;-1.29;100.00
65897;BME280;52677;50.898;10.854;2024-01-15T09:11:27;96674.47;;;-1.23;100.00
65897;BME280;52677;50.898;10.854;2024-01-15T09:13:27;96692.56;;;-1.27;100.00
65897;BME280;52677;50.898;10.854;2024-01-15T09:15:28;96677.19;;;-1.23;100.00
65897;BME280;52677;50.898;10.854;2024-01-15T09:17:28;96678.63;;;-1.13;100.00
65897;BME280;52677;50.898;10.854;2024-01-15T09:19:29;96682.56;;;-1.10;100.00
65897;BME280;52677;50.898;10.854;2024-01-15T09:21:29;96681.88;;;-1.07;100.00
65897;BME280;52677;50.898;10.854;2024-01-15T09:23:29;96684.47;;;-1.11;100.00
65897;BME280;52677;50.898;10.854;2024-01-15T09:25:30;96692.81;;;-1.04;100.00
65897;BME280;52677;50.898;10.854;2024-01-15T09:27:30;96685.22;;;-0.98;100.00
65897;BME280;52677;50.898;10.854;2024-01-15T09:29:31;96697.06;;;-0.91;100.00
65897;BME280;52677;50.898;10.854;2024-01-15T09:31:31;96690.75;;;-0.95;100.00
65897;BME280;52677;50.898;10.854;2024-01-15T09:33:32;96694.00;;;-0.89;100.00
65897;BME280;52677;50.898;10.854;2024-01-15T09:35:32;96708.09;;;-0.83;100.00
65897;BME280;52677;50.898;10.854;2024-01-15T09:37:32;96718.88;;;-0.87;100.00
65897;BME280;52677;50.898;10.854;2024-01-15T09:39:33;96713.44;;;-0.87;100.00
65897;BME280;52677;50.898;10.854;2024-01-15T09:41:34;96703.38;;;-0.87;100.00
65897;BME280;52677;50.898;10.854;2024-01-15T09:43:36;96698.94;;;-0.79;100.00
65897;BME280;52677;50.898;10.854;2024-01-15T09:45:37;96706.09;;;-0.87;100.00
65897;BME280;52677;50.898;10.854;2024-01-15T09:47:38;96700.56;;;-0.90;100.00
65897;BME280;52677;50.898;10.854;2024-01-15T09:49:38;96703.28;;;-0.90;100.00
65897;BME280;52677;50.898;10.854;2024-01-15T09:51:41;96697.50;;;-0.89;100.00
65897;BME280;52677;50.898;10.854;2024-01-15T09:53:42;96702.34;;;-0.82;100.00
65897;BME280;52677;50.898;10.854;2024-01-15T09:55:43;96707.00;;;-0.82;100.00
65897;BME280;52677;50.898;10.854;2024-01-15T09:57:44;96700.31;;;-0.85;100.00
65897;BME280;52677;50.898;10.854;2024-01-15T09:59:47;96694.72;;;-0.76;100.00
65897;BME280;52677;50.898;10.854;2024-01-15T10:01:50;96701.41;;;-0.74;100.00
65897;BME280;52677;50.898;10.854;2024-01-15T10:03:50;96686.34;;;-0.71;100.00
65897;BME280;52677;50.898;10.854;2024-01-15T10:05:50;96697.38;;;-0.64;100.00
65897;BME280;52677;50.898;10.854;2024-01-15T10:07:51;96696.09;;;-0.54;100.00
65897;BME280;52677;50.898;10.854;2024-01-15T10:09:53;96695.72;;;-0.53;100.00
65897;BME280;52677;50.898;10.854;2024-01-15T10:11:53;96702.38;;;-0.50;100.00
65897;BME280;52677;50.898;10.854;2024-01-15T10:13:54;96689.78;;;-0.43;100.00
65897;BME280;52677;50.898;10.854;2024-01-15T10:15:57;96685.47;;;-0.44;100.00
65897;BME280;52677;50.898;10.854;2024-01-15T10:17:58;96691.03;;;-0.40;100.00
65897;BME280;52677;50.898;10.854;2024-01-15T10:19:59;96690.72;;;-0.51;100.00
65897;BME280;52677;50.898;10.854;2024-01-15T10:22:00;96680.66;;;-0.50;100.00